Etretat — FIDP — position and weather

sailwx.info

Track history (hours):
 
Tides and Currents Weather Stations Pressure Air Temp Water Temp Dewpoint Dewpoint Depression Visibility Wind Speed Wind Dir Waves Ship Positions

Etretat

Last reported at 2015-May-30 19:33 UTC. Time now 2015-May-30 20:42 UTC.
Position N 48°05' W 005°10'.

Length 187 m; draft 6 m.

Type: Ship. MMSI: 228022900.

Date/timePositionNaut miles runAvg speedWind from/ knotsBaromVisibWave heightAir tempDewpointWater temp
2015-May-30 19:33N 48°05' W 005°10'2020.3
2015-May-30 18:33N 48°25' W 005°04'2720.6
2015-May-30 17:16N 48°44' W 004°37'10420.9
2015-May-30 12:18N 49°60' W 002°47'3721.3
2015-May-30 10:33N 50°17' W 001°55'2121.4
2015-May-30 09:33N 50°27' W 001°26'1919.5
2015-May-30 08:34N 50°40' W 001°03'8 8.5
2015-May-30 07:33N 50°49' W 001°06'0 0.0
2015-May-30 06:33N 50°49' W 001°06'0 0.0
2015-May-30 05:33N 50°49' W 001°06'0 0.0
2015-May-30 04:33N 50°49' W 001°06'6 5.6
2015-May-30 03:34N 50°44' W 001°02'1616.3
2015-May-30 02:34N 50°30' W 000°47'4514.8
2015-May-29 23:29N 49°50' W 000°14'1414.9
2015-May-29 22:33N 49°39' W 000°02'1 1.0
2015-May-29 21:33N 49°38' W 000°04'8 8.1
2015-May-29 20:33N 49°31' E 000°01'4 4.2
2015-May-29 19:33N 49°29' E 000°07'0 0.0
2015-May-29 18:33N 49°29' E 000°07'0 0.0
2015-May-29 17:33N 49°29' E 000°07'0 0.0
2015-May-29 16:34N 49°29' E 000°07'0 0.0
2015-May-29 15:34N 49°29' E 000°07'0 0.0
2015-May-29 14:34N 49°29' E 000°07'8 7.8
2015-May-29 13:34N 49°34' W 000°02'6220.8
2015-May-29 10:33N 50°29' W 000°48'1918.7
2015-May-29 09:34N 50°45' W 001°05'4 4.1
2015-May-29 08:33N 50°49' W 001°06'0 0.0
2015-May-29 07:33N 50°49' W 001°06'0 0.0
2015-May-29 06:33N 50°49' W 001°06'0 0.0
2015-May-29 05:33N 50°49' W 001°06'2110.6
2015-May-29 03:34N 50°31' W 000°47'4614.3
2015-May-29 00:22N 49°51' W 000°13'1214.4
2015-May-28 23:34N 49°40' W 000°05'1 1.1
2015-May-28 22:33N 49°40' W 000°03'1 1.1
2015-May-28 21:33N 49°39' W 000°04'1211.6
2015-May-28 20:33N 49°29' E 000°07'0 0.1
2015-May-28 19:33N 49°29' E 000°07'0 0.0
2015-May-28 18:33N 49°29' E 000°07'0 0.0
2015-May-28 17:33N 49°29' E 000°07'0 0.0
2015-May-28 16:33N 49°29' E 000°07'0 0.0
2015-May-28 15:33N 49°29' E 000°07'0 0.0
2015-May-28 14:33N 49°29' E 000°07'0 0.0
2015-May-28 13:33N 49°29' E 000°07'0 0.0
2015-May-28 12:33N 49°29' E 000°07'0 0.0
2015-May-28 11:33N 49°29' E 000°07'0 0.0
2015-May-28 10:33N 49°29' E 000°07'0 0.0
2015-May-28 09:33N 49°29' E 000°07'0 0.0
2015-May-28 08:33N 49°29' E 000°07'0 0.0
2015-May-28 07:33N 49°29' E 000°07'0 0.0
2015-May-28 06:33N 49°29' E 000°07'1 1.0
2015-May-28 05:33N 49°29' E 000°05'1212.4
2015-May-28 04:33N 49°39' W 000°07'6215.6
2015-May-28 00:33N 50°34' W 000°51'1414.4
2015-May-27 23:33N 50°45' W 001°05'3 3.3
2015-May-27 22:33N 50°49' W 001°06'0 0.0
2015-May-27 21:33N 50°49' W 001°06'0 0.0
2015-May-27 20:33N 50°49' W 001°06'1110.8
2015-May-27 19:33N 50°40' W 000°56'5121.7
2015-May-27 17:12N 49°54' W 000°21'1421.5
2015-May-27 16:34N 49°42' W 000°09'1716.8
2015-May-27 15:33N 49°29' E 000°07'0 0.1
2015-May-27 14:33N 49°29' E 000°07'0 0.0
2015-May-27 13:33N 49°29' E 000°07'0 0.0
2015-May-27 12:33N 49°29' E 000°07'0 0.0
2015-May-27 11:33N 49°29' E 000°07'0 0.0
2015-May-27 10:33N 49°29' E 000°07'0 0.0
2015-May-27 09:33N 49°29' E 000°07'0 0.0
2015-May-27 08:33N 49°29' E 000°07'0 0.0
2015-May-27 07:33N 49°29' E 000°07'0 0.0
2015-May-27 06:33N 49°29' E 000°07'3 2.6
2015-May-27 05:33N 49°30' E 000°03'1515.2
2015-May-27 04:33N 49°42' W 000°10'2019.4
2015-May-27 03:32N 49°60' W 000°24'3612.3
2015-May-27 00:33N 50°33' W 000°49'1010.1
2015-May-26 23:33N 50°41' W 000°58'9 9.2
2015-May-26 22:33N 50°49' W 001°06'0 0.3
2015-May-26 21:33N 50°49' W 001°06'0 0.0
2015-May-26 20:33N 50°49' W 001°06'1110.8
2015-May-26 19:34N 50°40' W 000°56'4822.0
2015-May-26 17:22N 49°58' W 000°20'1821.9
2015-May-26 16:33N 49°42' W 000°07'1312.7
2015-May-26 15:34N 49°30' E 000°01'4 3.8
2015-May-26 14:33N 49°29' E 000°07'0 0.0
2015-May-26 13:33N 49°29' E 000°07'0 0.0
2015-May-26 12:33N 49°29' E 000°07'0 0.0
2015-May-26 11:33N 49°29' E 000°07'0 0.0
2015-May-26 10:33N 49°29' E 000°07'0 0.0
2015-May-26 09:33N 49°29' E 000°07'0 0.0
2015-May-26 08:33N 49°29' E 000°07'0 0.0
2015-May-26 07:33N 49°29' E 000°07'0 0.0
2015-May-26 06:33N 49°29' E 000°07'1 1.3
2015-May-26 05:34N 49°29' E 000°05'1212.4
2015-May-26 04:34N 49°39' W 000°08'1313.0
2015-May-26 03:33N 49°50' W 000°17'4513.2
2015-May-26 00:07N 50°31' W 000°49'814.0
2015-May-25 23:33N 50°38' W 000°54'1312.6
2015-May-25 22:33N 50°48' W 001°07'1 1.3
2015-May-25 21:33N 50°49' W 001°06'0 0.0
2015-May-25 20:33N 50°49' W 001°06'0 0.0
2015-May-25 19:33N 50°49' W 001°06'0 0.0
2015-May-25 18:33N 50°49' W 001°06'0 0.0
2015-May-25 17:33N 50°49' W 001°06'0 0.0
2015-May-25 16:33N 50°49' W 001°06'0 0.0
2015-May-25 15:33N 50°49' W 001°06'0 0.0
2015-May-25 14:33N 50°49' W 001°06'2 2.5
2015-May-25 13:34N 50°46' W 001°05'1515.2
2015-May-25 12:34N 50°32' W 001°12'2423.8
2015-May-25 11:32N 50°17' W 001°42'3323.2
2015-May-25 10:08N 49°56' W 002°22'8821.7
2015-May-25 06:04N 49°01' W 004°08'1621.6
2015-May-25 05:19N 48°50' W 004°26'1621.4
2015-May-25 04:33N 48°39' W 004°44'1716.7
2015-May-25 03:33N 48°27' W 005°01'1919.2
2015-May-25 02:33N 48°09' W 005°10'2220.6
2015-May-25 01:30N 47°47' W 005°05'2121.5
2015-May-25 00:30N 47°26' W 004°58'8721.7
2015-May-24 20:30N 46°01' W 004°33'108 4.5
2015-May-23 20:34N 47°47' W 005°05'2222.4
2015-May-23 19:33N 48°10' W 005°09'1816.6
2015-May-23 18:30N 48°26' W 005°02'2419.7
2015-May-23 17:17N 48°44' W 004°38'9022.4
2015-May-23 13:16N 49°50' W 003°04'1520.7
2015-May-23 12:33N 49°59' W 002°46'2520.1
2015-May-23 11:19N 50°10' W 002°11'1619.5
2015-May-23 10:29N 50°18' W 001°49'2120.2
2015-May-23 09:28N 50°29' W 001°21'1820.1
2015-May-23 08:33N 50°40' W 000°58'10 9.9
2015-May-23 07:34N 50°49' W 001°06'0 0.0
2015-May-23 06:34N 50°49' W 001°06'0 0.0
2015-May-23 05:33N 50°49' W 001°06'0 0.1
2015-May-23 04:33N 50°49' W 001°06'8 8.5
2015-May-23 03:34N 50°42' W 000°58'1514.7
2015-May-23 02:33N 50°30' W 000°44'4011.9
2015-May-22 23:12N 49°55' W 000°15'710.3
2015-May-22 22:30N 49°48' W 000°12'9 9.9
2015-May-22 21:33N 49°40' W 000°06'10 9.7
2015-May-22 20:33N 49°31' E 000°01'4 4.2
2015-May-22 19:33N 49°29' E 000°07'0 0.0
2015-May-22 18:33N 49°29' E 000°07'0 0.0
2015-May-22 17:33N 49°29' E 000°07'0 0.0
2015-May-22 16:33N 49°29' E 000°07'0 0.0
2015-May-22 15:33N 49°29' E 000°07'0 0.0
2015-May-22 14:33N 49°29' E 000°07'0 0.0
2015-May-22 13:33N 49°29' E 000°07'0 0.0
2015-May-22 12:33N 49°29' E 000°07'0 0.0
2015-May-22 11:33N 49°29' E 000°07'0 0.2
2015-May-22 10:33N 49°29' E 000°07'0 0.0
2015-May-22 09:33N 49°29' E 000°07'0 0.0
2015-May-22 08:33N 49°29' E 000°07'0 0.0
2015-May-22 07:33N 49°29' E 000°07'0 0.0
2015-May-22 06:33N 49°29' E 000°07'0 0.0
2015-May-22 05:33N 49°29' E 000°07'0 0.0
2015-May-22 04:33N 49°29' E 000°07'0 0.0
2015-May-22 03:33N 49°29' E 000°07'0 0.0
2015-May-22 02:33N 49°29' E 000°07'0 0.0
2015-May-22 01:33N 49°29' E 000°07'0 0.0
2015-May-22 00:33N 49°29' E 000°07'0 0.0
2015-May-21 23:33N 49°29' E 000°07'0 0.0
2015-May-21 22:33N 49°29' E 000°07'0 0.0
2015-May-21 21:33N 49°29' E 000°07'0 0.0
2015-May-21 20:33N 49°29' E 000°07'0 0.0
2015-May-21 19:33N 49°29' E 000°07'0 0.2
2015-May-21 18:33N 49°29' E 000°07'0 0.0
2015-May-21 17:33N 49°29' E 000°07'0 0.0
2015-May-21 16:33N 49°29' E 000°07'3 2.7
2015-May-21 15:33N 49°30' E 000°03'1615.9
2015-May-21 14:33N 49°44' W 000°08'4816.0
2015-May-21 11:33N 50°30' E 000°12'1716.7
2015-May-21 10:33N 50°36' E 000°36'1716.6
2015-May-21 09:33N 50°46' E 000°57'1717.1
2015-May-21 08:34N 50°58' E 001°16'2121.2
2015-May-21 07:33N 51°12' E 001°42'2019.6
2015-May-21 06:33N 51°28' E 002°00'1918.3
2015-May-21 05:32N 51°42' E 002°20'2417.1
2015-May-21 04:08N 52°03' E 002°39'6117.1
2015-May-21 00:33N 52°59' E 003°18'  
Track history (hours):
 
Tides and Currents Weather Stations Pressure Air Temp Water Temp Dewpoint Dewpoint Depression Visibility Wind Speed Wind Dir Waves Ship Positions

Etretat

Last reported at 2015-May-30 19:33 UTC. Time now 2015-May-30 20:42 UTC.
Position N 48°05' W 005°10'.

Length 187 m; draft 6 m.

Type: Ship. MMSI: 228022900.

Date/timePositionNaut miles runAvg speedWind from/ knotsBaromVisibWave heightAir tempDewpointWater temp
2015-May-30 19:33N 48°05' W 005°10'2020.3
2015-May-30 18:33N 48°25' W 005°04'2720.6
2015-May-30 17:16N 48°44' W 004°37'10420.9
2015-May-30 12:18N 49°60' W 002°47'3721.3
2015-May-30 10:33N 50°17' W 001°55'2121.4
2015-May-30 09:33N 50°27' W 001°26'1919.5
2015-May-30 08:34N 50°40' W 001°03'8 8.5
2015-May-30 07:33N 50°49' W 001°06'0 0.0
2015-May-30 06:33N 50°49' W 001°06'0 0.0
2015-May-30 05:33N 50°49' W 001°06'0 0.0
2015-May-30 04:33N 50°49' W 001°06'6 5.6
2015-May-30 03:34N 50°44' W 001°02'1616.3
2015-May-30 02:34N 50°30' W 000°47'4514.8
2015-May-29 23:29N 49°50' W 000°14'1414.9
2015-May-29 22:33N 49°39' W 000°02'1 1.0
2015-May-29 21:33N 49°38' W 000°04'8 8.1
2015-May-29 20:33N 49°31' E 000°01'4 4.2
2015-May-29 19:33N 49°29' E 000°07'0 0.0
2015-May-29 18:33N 49°29' E 000°07'0 0.0
2015-May-29 17:33N 49°29' E 000°07'0 0.0
2015-May-29 16:34N 49°29' E 000°07'0 0.0
2015-May-29 15:34N 49°29' E 000°07'0 0.0
2015-May-29 14:34N 49°29' E 000°07'8 7.8
2015-May-29 13:34N 49°34' W 000°02'6220.8
2015-May-29 10:33N 50°29' W 000°48'1918.7
2015-May-29 09:34N 50°45' W 001°05'4 4.1
2015-May-29 08:33N 50°49' W 001°06'0 0.0
2015-May-29 07:33N 50°49' W 001°06'0 0.0
2015-May-29 06:33N 50°49' W 001°06'0 0.0
2015-May-29 05:33N 50°49' W 001°06'2110.6
2015-May-29 03:34N 50°31' W 000°47'4614.3
2015-May-29 00:22N 49°51' W 000°13'1214.4
2015-May-28 23:34N 49°40' W 000°05'1 1.1
2015-May-28 22:33N 49°40' W 000°03'1 1.1
2015-May-28 21:33N 49°39' W 000°04'1211.6
2015-May-28 20:33N 49°29' E 000°07'0 0.1
2015-May-28 19:33N 49°29' E 000°07'0 0.0
2015-May-28 18:33N 49°29' E 000°07'0 0.0
2015-May-28 17:33N 49°29' E 000°07'0 0.0
2015-May-28 16:33N 49°29' E 000°07'0 0.0
2015-May-28 15:33N 49°29' E 000°07'0 0.0
2015-May-28 14:33N 49°29' E 000°07'0 0.0
2015-May-28 13:33N 49°29' E 000°07'0 0.0
2015-May-28 12:33N 49°29' E 000°07'0 0.0
2015-May-28 11:33N 49°29' E 000°07'0 0.0
2015-May-28 10:33N 49°29' E 000°07'0 0.0
2015-May-28 09:33N 49°29' E 000°07'0 0.0
2015-May-28 08:33N 49°29' E 000°07'0 0.0
2015-May-28 07:33N 49°29' E 000°07'0 0.0
2015-May-28 06:33N 49°29' E 000°07'1 1.0
2015-May-28 05:33N 49°29' E 000°05'1212.4
2015-May-28 04:33N 49°39' W 000°07'6215.6
2015-May-28 00:33N 50°34' W 000°51'1414.4
2015-May-27 23:33N 50°45' W 001°05'3 3.3
2015-May-27 22:33N 50°49' W 001°06'0 0.0
2015-May-27 21:33N 50°49' W 001°06'0 0.0
2015-May-27 20:33N 50°49' W 001°06'1110.8
2015-May-27 19:33N 50°40' W 000°56'5121.7
2015-May-27 17:12N 49°54' W 000°21'1421.5
2015-May-27 16:34N 49°42' W 000°09'1716.8
2015-May-27 15:33N 49°29' E 000°07'0 0.1
2015-May-27 14:33N 49°29' E 000°07'0 0.0
2015-May-27 13:33N 49°29' E 000°07'0 0.0
2015-May-27 12:33N 49°29' E 000°07'0 0.0
2015-May-27 11:33N 49°29' E 000°07'0 0.0
2015-May-27 10:33N 49°29' E 000°07'0 0.0
2015-May-27 09:33N 49°29' E 000°07'0 0.0
2015-May-27 08:33N 49°29' E 000°07'0 0.0
2015-May-27 07:33N 49°29' E 000°07'0 0.0
2015-May-27 06:33N 49°29' E 000°07'3 2.6
2015-May-27 05:33N 49°30' E 000°03'1515.2
2015-May-27 04:33N 49°42' W 000°10'2019.4
2015-May-27 03:32N 49°60' W 000°24'3612.3
2015-May-27 00:33N 50°33' W 000°49'1010.1
2015-May-26 23:33N 50°41' W 000°58'9 9.2
2015-May-26 22:33N 50°49' W 001°06'0 0.3
2015-May-26 21:33N 50°49' W 001°06'0 0.0
2015-May-26 20:33N 50°49' W 001°06'1110.8
2015-May-26 19:34N 50°40' W 000°56'4822.0
2015-May-26 17:22N 49°58' W 000°20'1821.9
2015-May-26 16:33N 49°42' W 000°07'1312.7
2015-May-26 15:34N 49°30' E 000°01'4 3.8
2015-May-26 14:33N 49°29' E 000°07'0 0.0
2015-May-26 13:33N 49°29' E 000°07'0 0.0
2015-May-26 12:33N 49°29' E 000°07'0 0.0
2015-May-26 11:33N 49°29' E 000°07'0 0.0
2015-May-26 10:33N 49°29' E 000°07'0 0.0
2015-May-26 09:33N 49°29' E 000°07'0 0.0
2015-May-26 08:33N 49°29' E 000°07'0 0.0
2015-May-26 07:33N 49°29' E 000°07'0 0.0
2015-May-26 06:33N 49°29' E 000°07'1 1.3
2015-May-26 05:34N 49°29' E 000°05'1212.4
2015-May-26 04:34N 49°39' W 000°08'1313.0
2015-May-26 03:33N 49°50' W 000°17'4513.2
2015-May-26 00:07N 50°31' W 000°49'814.0
2015-May-25 23:33N 50°38' W 000°54'1312.6
2015-May-25 22:33N 50°48' W 001°07'1 1.3
2015-May-25 21:33N 50°49' W 001°06'0 0.0
2015-May-25 20:33N 50°49' W 001°06'0 0.0
2015-May-25 19:33N 50°49' W 001°06'0 0.0
2015-May-25 18:33N 50°49' W 001°06'0 0.0
2015-May-25 17:33N 50°49' W 001°06'0 0.0
2015-May-25 16:33N 50°49' W 001°06'0 0.0
2015-May-25 15:33N 50°49' W 001°06'0 0.0
2015-May-25 14:33N 50°49' W 001°06'2 2.5
2015-May-25 13:34N 50°46' W 001°05'1515.2
2015-May-25 12:34N 50°32' W 001°12'2423.8
2015-May-25 11:32N 50°17' W 001°42'3323.2
2015-May-25 10:08N 49°56' W 002°22'8821.7
2015-May-25 06:04N 49°01' W 004°08'1621.6
2015-May-25 05:19N 48°50' W 004°26'1621.4
2015-May-25 04:33N 48°39' W 004°44'1716.7
2015-May-25 03:33N 48°27' W 005°01'1919.2
2015-May-25 02:33N 48°09' W 005°10'2220.6
2015-May-25 01:30N 47°47' W 005°05'2121.5
2015-May-25 00:30N 47°26' W 004°58'8721.7
2015-May-24 20:30N 46°01' W 004°33'108 4.5
2015-May-23 20:34N 47°47' W 005°05'2222.4
2015-May-23 19:33N 48°10' W 005°09'1816.6
2015-May-23 18:30N 48°26' W 005°02'2419.7
2015-May-23 17:17N 48°44' W 004°38'9022.4
2015-May-23 13:16N 49°50' W 003°04'1520.7
2015-May-23 12:33N 49°59' W 002°46'2520.1
2015-May-23 11:19N 50°10' W 002°11'1619.5
2015-May-23 10:29N 50°18' W 001°49'2120.2
2015-May-23 09:28N 50°29' W 001°21'1820.1
2015-May-23 08:33N 50°40' W 000°58'10 9.9
2015-May-23 07:34N 50°49' W 001°06'0 0.0
2015-May-23 06:34N 50°49' W 001°06'0 0.0
2015-May-23 05:33N 50°49' W 001°06'0 0.1
2015-May-23 04:33N 50°49' W 001°06'8 8.5
2015-May-23 03:34N 50°42' W 000°58'1514.7
2015-May-23 02:33N 50°30' W 000°44'4011.9
2015-May-22 23:12N 49°55' W 000°15'710.3
2015-May-22 22:30N 49°48' W 000°12'9 9.9
2015-May-22 21:33N 49°40' W 000°06'10 9.7
2015-May-22 20:33N 49°31' E 000°01'4 4.2
2015-May-22 19:33N 49°29' E 000°07'0 0.0
2015-May-22 18:33N 49°29' E 000°07'0 0.0
2015-May-22 17:33N 49°29' E 000°07'0 0.0
2015-May-22 16:33N 49°29' E 000°07'0 0.0
2015-May-22 15:33N 49°29' E 000°07'0 0.0
2015-May-22 14:33N 49°29' E 000°07'0 0.0
2015-May-22 13:33N 49°29' E 000°07'0 0.0
2015-May-22 12:33N 49°29' E 000°07'0 0.0
2015-May-22 11:33N 49°29' E 000°07'0 0.2
2015-May-22 10:33N 49°29' E 000°07'0 0.0
2015-May-22 09:33N 49°29' E 000°07'0 0.0
2015-May-22 08:33N 49°29' E 000°07'0 0.0
2015-May-22 07:33N 49°29' E 000°07'0 0.0
2015-May-22 06:33N 49°29' E 000°07'0 0.0
2015-May-22 05:33N 49°29' E 000°07'0 0.0
2015-May-22 04:33N 49°29' E 000°07'0 0.0
2015-May-22 03:33N 49°29' E 000°07'0 0.0
2015-May-22 02:33N 49°29' E 000°07'0 0.0
2015-May-22 01:33N 49°29' E 000°07'0 0.0
2015-May-22 00:33N 49°29' E 000°07'0 0.0
2015-May-21 23:33N 49°29' E 000°07'0 0.0
2015-May-21 22:33N 49°29' E 000°07'0 0.0
2015-May-21 21:33N 49°29' E 000°07'0 0.0
2015-May-21 20:33N 49°29' E 000°07'0 0.0
2015-May-21 19:33N 49°29' E 000°07'0 0.2
2015-May-21 18:33N 49°29' E 000°07'0 0.0
2015-May-21 17:33N 49°29' E 000°07'0 0.0
2015-May-21 16:33N 49°29' E 000°07'3 2.7
2015-May-21 15:33N 49°30' E 000°03'1615.9
2015-May-21 14:33N 49°44' W 000°08'4816.0
2015-May-21 11:33N 50°30' E 000°12'1716.7
2015-May-21 10:33N 50°36' E 000°36'1716.6
2015-May-21 09:33N 50°46' E 000°57'1717.1
2015-May-21 08:34N 50°58' E 001°16'2121.2
2015-May-21 07:33N 51°12' E 001°42'2019.6
2015-May-21 06:33N 51°28' E 002°00'1918.3
2015-May-21 05:32N 51°42' E 002°20'2417.1
2015-May-21 04:08N 52°03' E 002°39'6117.1
2015-May-21 00:33N 52°59' E 003°18'  

Dump ship's entire track history